الصفحة الرئيسية
METAR-TAF:

METAR-TAF

مطار :

مطار بغداد الدولي

بغداد, العراق

دائرة عرض: 33-15-45N, خط طول: 44-14-04E, ارتفاع: 35 متر

مراقبة الطقس الحالي

تاريخ ووقت الإصدار 19 دقيقة قبل الساعة 15:00UTC
ريح 6 عقدة من الشمال الغربي
درجة الحرارة 14°درجة مئوية
الرطوبة 63%
ضغط 1026 hPa
الرؤية 10 كم أو أكثر
الغيوم لا تقل 1500 م ولا وجود لمزنة ركامية السحاب الأسود

METAR: ORBI 141500Z 32006KT CAVOK 14/07 Q1026 NOSIG

زمن: 18:19 (15:19 UTC)

توقعات

تاريخ ووقت الإصدار 4ساعات و 19 دقيقة قبل الساعة 11:00UTC
التوقعات صالحة من14 الساعة 12 UTC إلى 15 الساعة 12 UTC
ريح 12 عقدة من الشمال/الشمال الغربي
الرؤية 10 كم أو أكثر
الغيوم لا تقل 1500 م ولا وجود لمزنة ركامية السحاب الأسود

TAF: ORBI 141100Z 1412/1512 34012KT CAVOK

أرصاد الطقس والتوقعات من أكثر من 4000 مطار (تقارير الطقس للمطار METAR والتنبؤ بالطقس بالمطارTAF).

المحطات المتاحة هي النقط الصفراء والحمراء على الخريطة.

حرك المؤشر فوق النقطة لمعرفة اسم المحطة.

ثم انقر لمعرفة أرصاد وتوقعات الطقس.

لتغيير الخارطة: اضغط على الأزرار الخضراء مع رمز الصليب الأسود للتكبير. على الزر الأخضر مع شرطة للتصغير، أو على الأسهم الخضراء للخرائط المجاورة.


METAR-TAF: